Time;durP1;ratioP1;P1;durP2;ratioP2;P2;SDS_P1;SDS_P2;PMS_P1;PMS_P2;Temp;Humidity;BMP_temperature;BMP_pressure;BME280_temperature;BME280_humidity;BME280_pressure;Samples;Min_cycle;Max_cycle;Signal;HPM_P1;HPM_P2
2023/06/12 00:01:58;;;;;;;;;;;;;;;23.51;57.19;97837.56;5024779;28;19925;-70
2023/06/12 00:04:24;;;;;;;;;;;;;;;23.31;58.37;97838.53;5024291;28;19926;-70
2023/06/12 00:06:51;;;;;;;;;;;;;;;23.61;58.37;97837.03;5020086;28;19948;-70
2023/06/12 00:09:17;;;;;;;;;;;;;;;23.86;57.63;97834.19;5028005;28;19925;-70
2023/06/12 00:11:44;;;;;;;;;;;;;;;24.07;57.05;97834.72;5025506;28;19948;-70
2023/06/12 00:14:10;;;;;;;;;;;;;;;24.16;56.74;97830.69;5024538;28;19933;-70
2023/06/12 00:16:38;;;;;;;;;;;;;;;24.19;56.71;97834.66;5026122;28;20089;-70
2023/06/12 00:19:06;;;;;;;;;;;;;;;24.20;56.54;97836.25;5027756;28;19926;-70
2023/06/12 00:21:33;;;;;;;;;;;;;;;24.22;56.36;97839.41;5033113;28;19932;-70
2023/06/12 00:23:59;;;;;;;;;;;;;;;24.25;56.47;97835.97;5024368;28;19925;-71
2023/06/12 00:26:26;;;;;;;;;;;;;;;24.01;56.99;97842.38;5024343;28;19932;-70
2023/06/12 00:28:52;;;;;;;;;;;;;;;23.90;57.48;97837.78;5027438;28;19921;-70
2023/06/12 00:31:19;;;;;;;;;;;;;;;23.97;57.15;97848.88;5026306;28;19925;-70
2023/06/12 00:33:46;;;;;;;;;;;;;;;24.04;56.93;97843.63;5024880;28;19984;-70
2023/06/12 00:36:13;;;;;;;;;;;;;;;24.10;56.88;97842.19;5024505;28;19925;-70
2023/06/12 00:38:40;;;;;;;;;;;;;;;24.12;56.88;97845.38;5026370;28;19926;-70
2023/06/12 00:41:06;;;;;;;;;;;;;;;24.16;56.82;97835.38;5027728;28;19932;-70
2023/06/12 00:43:33;;;;;;;;;;;;;;;24.12;56.76;97835.28;5026552;28;19925;-70
2023/06/12 00:46:00;;;;;;;;;;;;;;;24.19;56.86;97837.38;5024142;28;19953;-70
2023/06/12 00:48:27;;;;;;;;;;;;;;;24.16;56.74;97835.38;5024251;28;20615;-70
2023/06/12 00:50:56;;;;;;;;;;;;;;;24.11;56.64;97833.69;5033669;28;19926;-70
2023/06/12 00:53:23;;;;;;;;;;;;;;;24.14;56.80;97832.19;5025945;28;19936;-70
2023/06/12 00:55:50;;;;;;;;;;;;;;;24.03;57.04;97828.38;5023801;28;19925;-70
2023/06/12 00:58:16;;;;;;;;;;;;;;;23.59;57.75;97833.09;5023616;28;19936;-70
2023/06/12 01:00:43;;;;;;;;;;;;;;;23.67;58.25;97827.47;5026208;28;19926;-70
2023/06/12 01:03:13;;;;;;;;;;;;;;;23.70;58.13;97831.44;5026985;28;20232;-70
2023/06/12 01:05:42;;;;;;;;;;;;;;;23.79;57.96;97839.47;5025104;28;19926;-70
2023/06/12 01:08:19;;;;;;;;;;;;;;;23.89;57.58;97833.50;5022249;28;19937;-70
2023/06/12 01:10:51;;;;;;;;;;;;;;;23.87;57.60;97833.03;5026421;28;20013;-70
2023/06/12 01:13:18;;;;;;;;;;;;;;;23.86;57.38;97828.75;5026722;28;19943;-70
2023/06/12 01:15:44;;;;;;;;;;;;;;;23.89;57.51;97833.50;5023289;28;19926;-70
2023/06/12 01:18:11;;;;;;;;;;;;;;;23.91;57.38;97833.91;5023245;28;20273;-70
2023/06/12 01:20:37;;;;;;;;;;;;;;;23.93;57.49;97835.16;5031365;28;19926;-70
2023/06/12 01:23:09;;;;;;;;;;;;;;;23.90;57.41;97833.13;5026519;28;19921;-71
2023/06/12 01:25:50;;;;;;;;;;;;;;;23.90;57.31;97838.59;5025111;28;19929;-70
2023/06/12 01:28:25;;;;;;;;;;;;;;;23.88;57.20;97832.69;5023179;28;19930;-70
2023/06/12 01:31:03;;;;;;;;;;;;;;;23.91;57.45;97834.72;5023051;28;19921;-70
2023/06/12 01:33:35;;;;;;;;;;;;;;;23.89;57.23;97833.50;5023354;28;20351;-70
2023/06/12 01:36:03;;;;;;;;;;;;;;;23.81;57.45;97832.50;5026174;28;19936;-71
2023/06/12 01:38:30;;;;;;;;;;;;;;;23.86;57.13;97834.97;5025595;28;19925;-70
2023/06/12 01:40:58;;;;;;;;;;;;;;;23.81;57.38;97832.50;5022659;28;19925;-70
2023/06/12 01:43:25;;;;;;;;;;;;;;;23.83;57.07;97829.44;5022511;28;19932;-70
2023/06/12 01:45:51;;;;;;;;;;;;;;;23.81;57.15;97837.97;5022643;28;19926;-70
2023/06/12 01:48:18;;;;;;;;;;;;;;;23.74;57.10;97837.00;5022632;28;19926;-70
2023/06/12 01:50:45;;;;;;;;;;;;;;;23.75;57.27;97833.09;5031895;28;19957;-70
2023/06/12 01:53:13;;;;;;;;;;;;;;;23.74;57.16;97842.47;5026368;28;19925;-71
2023/06/12 01:55:41;;;;;;;;;;;;;;;23.67;57.28;97830.19;5024212;28;19926;-70
2023/06/12 01:58:08;;;;;;;;;;;;;;;23.73;57.25;97824.50;5022744;28;19926;-70
2023/06/12 02:00:35;;;;;;;;;;;;;;;23.70;57.22;97830.66;5023967;28;19926;-70
2023/06/12 02:03:02;;;;;;;;;;;;;;;23.69;57.20;97829.06;5026230;28;19929;-71
2023/06/12 02:05:29;;;;;;;;;;;;;;;23.67;57.33;97829.44;5024473;28;19921;-70
2023/06/12 02:07:56;;;;;;;;;;;;;;;23.63;57.47;97834.78;5022906;28;19926;-70
2023/06/12 02:10:23;;;;;;;;;;;;;;;23.57;57.51;97838.91;5022445;28;19933;-70
2023/06/12 02:12:49;;;;;;;;;;;;;;;23.58;57.25;97835.03;5025639;28;19925;-70
2023/06/12 02:15:16;;;;;;;;;;;;;;;23.60;57.28;97838.22;5024732;28;20039;-70
2023/06/12 02:17:43;;;;;;;;;;;;;;;23.59;57.56;97833.88;5023573;28;19926;-70
2023/06/12 02:20:10;;;;;;;;;;;;;;;23.55;57.38;97841.16;5026756;28;19925;-70
2023/06/12 02:22:36;;;;;;;;;;;;;;;23.51;57.48;97834.06;5025850;28;19925;-70
2023/06/12 02:25:04;;;;;;;;;;;;;;;23.52;57.49;97830.19;5025877;28;19926;-70
2023/06/12 02:27:31;;;;;;;;;;;;;;;23.49;57.53;97836.31;5024679;28;19940;-70
2023/06/12 02:29:57;;;;;;;;;;;;;;;23.46;57.73;97837.81;5022460;28;19949;-71
2023/06/12 02:32:23;;;;;;;;;;;;;;;23.47;57.68;97833.94;5022406;28;19945;-70
2023/06/12 02:34:50;;;;;;;;;;;;;;;23.46;57.46;97842.47;5025617;28;19925;-70
2023/06/12 02:37:17;;;;;;;;;;;;;;;23.42;57.63;97836.94;5025682;28;19987;-70
2023/06/12 02:39:44;;;;;;;;;;;;;;;23.35;57.74;97839.44;5022160;28;19921;-70
2023/06/12 02:42:12;;;;;;;;;;;;;;;23.38;58.00;97838.75;5022579;28;19925;-70
2023/06/12 02:44:38;;;;;;;;;;;;;;;23.38;57.88;97836.00;5024074;28;20572;-70
2023/06/12 02:47:05;;;;;;;;;;;;;;;23.32;58.15;97831.97;5026021;28;19937;-70
2023/06/12 02:49:31;;;;;;;;;;;;;;;23.32;58.25;97852.97;5024949;28;19926;-70
2023/06/12 02:51:58;;;;;;;;;;;;;;;23.32;58.21;97836.59;5028705;28;20012;-70
2023/06/12 02:54:25;;;;;;;;;;;;;;;23.28;58.38;97843.88;5022204;28;19925;-71
2023/06/12 02:56:52;;;;;;;;;;;;;;;23.28;58.28;97847.41;5025618;28;19925;-71
2023/06/12 02:59:21;;;;;;;;;;;;;;;23.28;58.48;97850.13;5025576;28;19933;-70
2023/06/12 03:01:48;;;;;;;;;;;;;;;23.18;58.61;97853.34;5022469;28;19926;-70
2023/06/12 03:04:16;;;;;;;;;;;;;;;23.22;58.66;97848.78;5022005;28;19926;-70
2023/06/12 03:06:44;;;;;;;;;;;;;;;23.23;58.62;97847.66;5024576;28;19926;-70
2023/06/12 03:09:11;;;;;;;;;;;;;;;23.21;58.47;97847.19;5024316;28;19925;-70
2023/06/12 03:11:37;;;;;;;;;;;;;;;23.24;58.52;97845.75;5030857;28;19941;-70
2023/06/12 03:14:04;;;;;;;;;;;;;;;23.24;58.70;97851.94;5020703;28;20361;-70
2023/06/12 03:16:32;;;;;;;;;;;;;;;23.19;58.83;97854.94;5022405;28;19937;-70
2023/06/12 03:18:59;;;;;;;;;;;;;;;23.13;59.07;97846.22;5024899;28;19921;-71
2023/06/12 03:21:25;;;;;;;;;;;;;;;23.12;58.99;97841.91;5031718;28;19925;-71
2023/06/12 03:23:52;;;;;;;;;;;;;;;23.12;58.88;97849.28;5021800;28;19929;-70
2023/06/12 03:26:18;;;;;;;;;;;;;;;23.14;58.78;97841.56;5021947;28;19922;-70
2023/06/12 03:28:45;;;;;;;;;;;;;;;23.03;59.07;97840.47;5024465;28;19926;-70
2023/06/12 03:31:12;;;;;;;;;;;;;;;22.94;59.26;97846.06;5025765;28;19925;-70
2023/06/12 03:33:40;;;;;;;;;;;;;;;22.79;59.64;97845.97;5023971;28;19921;-70
2023/06/12 03:36:06;;;;;;;;;;;;;;;22.87;59.91;97845.06;5021778;28;19926;-70
2023/06/12 03:38:32;;;;;;;;;;;;;;;22.90;59.79;97844.38;5024142;28;19933;-70
2023/06/12 03:40:59;;;;;;;;;;;;;;;22.87;59.82;97853.22;5028822;28;19921;-70
2023/06/12 03:43:25;;;;;;;;;;;;;;;22.93;59.86;97846.41;5028693;28;19936;-70
2023/06/12 03:45:51;;;;;;;;;;;;;;;22.86;59.90;97835.31;5040667;28;19921;-70
2023/06/12 03:48:18;;;;;;;;;;;;;;;22.91;59.79;97841.28;5025101;28;19982;-70
2023/06/12 03:50:45;;;;;;;;;;;;;;;22.90;59.80;97838.94;5032935;28;19925;-70
2023/06/12 03:53:12;;;;;;;;;;;;;;;22.71;60.22;97855.06;5028648;28;19925;-71
2023/06/12 03:55:38;;;;;;;;;;;;;;;22.81;60.29;97860.06;5026722;28;19922;-70
2023/06/12 03:58:05;;;;;;;;;;;;;;;22.81;60.28;97846.44;5023952;28;19933;-70
2023/06/12 04:00:31;;;;;;;;;;;;;;;22.75;60.42;97855.97;5025638;28;19937;-72
2023/06/12 04:02:57;;;;;;;;;;;;;;;22.76;60.73;97863.00;5028156;28;19937;-70
2023/06/12 04:05:25;;;;;;;;;;;;;;;22.76;60.79;97860.28;5027023;28;19925;-71
2023/06/12 04:07:53;;;;;;;;;;;;;;;22.83;60.62;97855.06;5024741;28;19937;-70
2023/06/12 04:10:19;;;;;;;;;;;;;;;22.74;61.00;97862.56;5024714;28;20394;-70
2023/06/12 04:12:45;;;;;;;;;;;;;;;22.77;60.72;97864.59;5026124;28;20526;-70
2023/06/12 04:15:12;;;;;;;;;;;;;;;22.65;61.33;97864.59;5028031;28;19925;-70
2023/06/12 04:17:38;;;;;;;;;;;;;;;22.68;61.23;97863.94;5026581;28;19936;-70
2023/06/12 04:20:06;;;;;;;;;;;;;;;22.66;61.42;97861.53;5028229;28;19997;-70
2023/06/12 04:22:33;;;;;;;;;;;;;;;22.77;61.17;97870.84;5026586;28;19926;-70
2023/06/12 04:25:04;;;;;;;;;;;;;;;22.78;61.41;97868.88;5027848;28;19933;-70
2023/06/12 04:27:31;;;;;;;;;;;;;;;22.58;62.15;97871.41;5027226;28;19930;-70
2023/06/12 04:29:59;;;;;;;;;;;;;;;22.63;62.07;97864.13;5024361;28;19941;-70
2023/06/12 04:32:29;;;;;;;;;;;;;;;22.67;61.84;97870.50;5024278;28;19926;-70
2023/06/12 04:34:55;;;;;;;;;;;;;;;22.49;62.66;97869.94;5028226;28;19925;-70
2023/06/12 04:37:22;;;;;;;;;;;;;;;22.62;62.32;97873.44;5027544;28;19925;-70
2023/06/12 04:39:50;;;;;;;;;;;;;;;22.64;62.45;97871.94;5024365;28;19922;-71
2023/06/12 04:42:18;;;;;;;;;;;;;;;22.22;63.77;97865.16;5024058;28;20028;-70
2023/06/12 04:44:46;;;;;;;;;;;;;;;22.27;64.38;97867.66;5026524;28;19940;-70
2023/06/12 04:47:14;;;;;;;;;;;;;;;22.31;64.67;97868.56;5027408;28;19926;-70
2023/06/12 04:49:41;;;;;;;;;;;;;;;22.37;64.32;97859.06;5025769;28;19925;-70
2023/06/12 04:52:08;;;;;;;;;;;;;;;22.37;64.54;97859.84;5028776;28;19930;-71
2023/06/12 04:54:36;;;;;;;;;;;;;;;22.40;64.49;97859.16;5025039;28;19933;-71
2023/06/12 04:57:03;;;;;;;;;;;;;;;22.20;65.26;97853.81;5027326;28;19925;-70
2023/06/12 04:59:37;;;;;;;;;;;;;;;21.87;66.76;97859.31;5026583;28;19932;-70
2023/06/12 05:02:04;;;;;;;;;;;;;;;21.82;67.79;97857.59;5023887;28;19926;-70
2023/06/12 05:04:30;;;;;;;;;;;;;;;22.03;67.34;97855.63;5024347;28;19940;-70
2023/06/12 05:06:57;;;;;;;;;;;;;;;21.80;69.08;97861.78;5027047;28;19929;-70
2023/06/12 05:09:25;;;;;;;;;;;;;;;22.01;68.56;97860.59;5025834;28;19932;-70
2023/06/12 05:11:51;;;;;;;;;;;;;;;22.11;67.75;97847.69;5023599;28;19953;-70
2023/06/12 05:14:17;;;;;;;;;;;;;;;21.73;69.95;97859.63;5023667;28;19930;-70
2023/06/12 05:16:46;;;;;;;;;;;;;;;21.69;70.61;97858.72;5026034;28;19984;-70
2023/06/12 05:19:13;;;;;;;;;;;;;;;21.50;71.56;97861.97;5027045;28;19929;-70
2023/06/12 05:21:41;;;;;;;;;;;;;;;21.59;73.14;97874.66;5031763;28;19925;-71
2023/06/12 05:24:07;;;;;;;;;;;;;;;21.12;76.25;97864.06;5022206;28;19926;-70
2023/06/12 05:26:34;;;;;;;;;;;;;;;21.30;75.92;97868.19;5039756;28;20033;-70
2023/06/12 05:29:01;;;;;;;;;;;;;;;21.56;75.42;97875.31;5025458;28;19929;-70
2023/06/12 05:31:28;;;;;;;;;;;;;;;21.99;73.25;97878.41;5026511;28;19932;-70
2023/06/12 05:33:56;;;;;;;;;;;;;;;22.30;70.94;97877.84;5023266;28;19933;-70
2023/06/12 05:36:22;;;;;;;;;;;;;;;22.46;69.58;97881.50;5023034;28;19933;-70
2023/06/12 05:38:49;;;;;;;;;;;;;;;22.48;69.35;97882.75;5026015;28;19926;-71
2023/06/12 05:41:16;;;;;;;;;;;;;;;22.56;68.90;97881.03;5026368;28;20382;-70
2023/06/12 05:43:44;;;;;;;;;;;;;;;22.73;67.65;97885.47;5024131;28;20012;-71
2023/06/12 05:46:11;;;;;;;;;;;;;;;23.07;65.88;97880.28;5021732;28;19925;-71
2023/06/12 05:48:37;;;;;;;;;;;;;;;23.26;65.79;97871.50;5024688;28;19926;-70
2023/06/12 05:51:05;;;;;;;;;;;;;;;23.12;66.56;97871.88;5031906;28;19952;-70
2023/06/12 05:53:31;;;;;;;;;;;;;;;23.28;65.52;97868.41;5025960;28;19935;-70
2023/06/12 05:55:58;;;;;;;;;;;;;;;23.47;64.83;97874.84;5022999;28;19932;-70
2023/06/12 05:58:24;;;;;;;;;;;;;;;23.76;63.97;97886.50;5022012;28;19996;-70
2023/06/12 06:00:52;;;;;;;;;;;;;;;23.94;63.26;97879.59;5025871;28;19935;-70
2023/06/12 06:03:19;;;;;;;;;;;;;;;24.08;62.66;97878.00;5026498;28;20484;-70
2023/06/12 06:05:46;;;;;;;;;;;;;;;24.12;62.20;97880.84;5022378;28;19930;-70
2023/06/12 06:08:14;;;;;;;;;;;;;;;24.26;61.90;97878.50;5022749;28;19926;-70
2023/06/12 06:10:41;;;;;;;;;;;;;;;24.42;61.52;97873.78;5024629;28;19926;-71
2023/06/12 06:13:07;;;;;;;;;;;;;;;24.35;61.21;97872.84;5024852;28;19926;-71
2023/06/12 06:15:33;;;;;;;;;;;;;;;24.12;60.66;97876.19;5024997;28;19926;-71
2023/06/12 06:18:00;;;;;;;;;;;;;;;24.03;62.00;97878.28;5022645;28;19926;-70
2023/06/12 06:20:27;;;;;;;;;;;;;;;24.29;61.68;97877.78;5029110;28;19925;-71
2023/06/12 06:22:53;;;;;;;;;;;;;;;24.49;61.16;97879.44;5027077;28;19937;-71
2023/06/12 06:25:22;;;;;;;;;;;;;;;24.73;60.51;97881.94;5026786;28;19932;-71
2023/06/12 06:27:49;;;;;;;;;;;;;;;24.91;59.68;97887.84;5023627;28;20304;-71
2023/06/12 06:30:15;;;;;;;;;;;;;;;24.71;59.02;97888.91;5023459;28;19941;-70
2023/06/12 06:32:42;;;;;;;;;;;;;;;24.93;59.06;97891.00;5025023;28;19953;-71
2023/06/12 06:35:08;;;;;;;;;;;;;;;25.01;57.80;97887.28;5026006;28;20119;-72
2023/06/12 06:37:35;;;;;;;;;;;;;;;25.01;57.72;97894.66;5024816;28;19926;-71
2023/06/12 06:40:04;;;;;;;;;;;;;;;25.09;58.14;97890.97;5022761;28;19984;-70
2023/06/12 06:42:32;;;;;;;;;;;;;;;24.78;55.19;97894.53;5023476;28;19933;-70
2023/06/12 06:44:58;;;;;;;;;;;;;;;24.73;57.41;97902.22;5025921;28;19929;-70
2023/06/12 06:47:25;;;;;;;;;;;;;;;25.06;57.56;97906.13;5041193;28;19952;-70
2023/06/12 06:49:51;;;;;;;;;;;;;;;24.95;54.43;97896.09;5023172;28;19933;-71
2023/06/12 06:52:19;;;;;;;;;;;;;;;24.76;56.67;97898.78;5026981;28;19933;-71
2023/06/12 06:54:46;;;;;;;;;;;;;;;24.75;56.04;97903.44;5040286;28;19933;-71
2023/06/12 06:57:12;;;;;;;;;;;;;;;24.78;56.80;97899.22;5025768;28;19932;-71
2023/06/12 06:59:40;;;;;;;;;;;;;;;24.94;56.68;97894.53;5023819;28;20058;-70
2023/06/12 07:02:06;;;;;;;;;;;;;;;24.75;55.24;97906.19;5022208;28;20005;-70
2023/06/12 07:04:32;;;;;;;;;;;;;;;24.53;53.90;97899.44;5023128;28;19925;-71
2023/06/12 07:06:59;;;;;;;;;;;;;;;24.48;54.34;97891.50;5025643;28;19933;-70
2023/06/12 07:09:25;;;;;;;;;;;;;;;24.50;55.82;97893.88;5024381;28;19948;-70
2023/06/12 07:11:52;;;;;;;;;;;;;;;24.47;54.89;97891.84;5022025;28;19925;-70
2023/06/12 07:14:18;;;;;;;;;;;;;;;24.36;54.29;97898.97;5024857;28;20230;-70
2023/06/12 07:16:46;;;;;;;;;;;;;;;24.46;55.67;97885.59;5027479;28;19926;-70
2023/06/12 07:19:12;;;;;;;;;;;;;;;24.08;54.59;97893.56;5028033;28;19926;-70
2023/06/12 07:21:39;;;;;;;;;;;;;;;24.00;56.01;97891.81;5034161;28;19933;-70
2023/06/12 07:24:05;;;;;;;;;;;;;;;24.00;55.44;97894.56;5025886;28;19926;-70
2023/06/12 07:26:32;;;;;;;;;;;;;;;23.81;54.82;97886.25;5026466;28;19922;-70
2023/06/12 07:28:59;;;;;;;;;;;;;;;23.83;54.89;97890.22;5029371;28;19929;-70
2023/06/12 07:31:25;;;;;;;;;;;;;;;23.67;54.35;97887.44;5029016;28;19933;-70
2023/06/12 07:33:53;;;;;;;;;;;;;;;23.55;54.83;97884.78;5036175;28;19925;-71
2023/06/12 07:36:19;;;;;;;;;;;;;;;23.61;54.43;97888.84;5028897;28;19925;-70
2023/06/12 07:38:46;;;;;;;;;;;;;;;23.39;53.77;97888.59;5026374;28;19925;-70
2023/06/12 07:41:12;;;;;;;;;;;;;;;23.19;54.18;97876.72;5024450;28;19926;-70
2023/06/12 07:43:39;;;;;;;;;;;;;;;23.19;54.84;97887.63;5027341;28;19929;-70
2023/06/12 07:46:05;;;;;;;;;;;;;;;23.48;54.14;97879.16;5028940;28;19933;-70
2023/06/12 07:48:31;;;;;;;;;;;;;;;23.54;54.94;97880.50;5028211;28;19929;-70
2023/06/12 07:50:59;;;;;;;;;;;;;;;23.51;53.61;97878.47;5028450;28;19933;-70
2023/06/12 07:53:25;;;;;;;;;;;;;;;23.73;54.43;97870.84;5028767;28;19932;-70
2023/06/12 07:55:52;;;;;;;;;;;;;;;23.69;53.81;97869.97;5025351;28;19925;-70
2023/06/12 07:58:19;;;;;;;;;;;;;;;23.99;53.57;97874.66;5023973;28;19926;-71
2023/06/12 08:00:45;;;;;;;;;;;;;;;23.82;53.78;97871.47;5026653;28;19933;-70
2023/06/12 08:03:15;;;;;;;;;;;;;;;23.62;53.40;97863.19;5028547;28;19922;-70
2023/06/12 08:05:41;;;;;;;;;;;;;;;23.42;53.89;97866.91;5026235;28;19932;-70
2023/06/12 08:08:12;;;;;;;;;;;;;;;24.04;54.41;97876.34;5023788;28;19979;-71
2023/06/12 08:10:38;;;;;;;;;;;;;;;23.99;53.91;97865.69;5026660;28;19927;-70
2023/06/12 08:13:04;;;;;;;;;;;;;;;24.49;52.92;97862.25;5035184;28;19932;-70
2023/06/12 08:15:31;;;;;;;;;;;;;;;24.31;53.81;97864.56;5026609;28;19929;-71
2023/06/12 08:17:57;;;;;;;;;;;;;;;23.79;53.69;97867.53;5025160;28;19933;-70
2023/06/12 08:20:24;;;;;;;;;;;;;;;23.81;53.72;97869.88;5031154;28;19929;-70
2023/06/12 08:22:50;;;;;;;;;;;;;;;24.41;53.79;97861.31;5028323;28;19929;-70
2023/06/12 08:25:18;;;;;;;;;;;;;;;24.85;53.73;97869.38;5027641;28;19948;-71
2023/06/12 08:27:44;;;;;;;;;;;;;;;24.53;52.30;97871.31;5025624;28;20291;-71
2023/06/12 08:30:11;;;;;;;;;;;;;;;24.63;52.99;97865.34;5024766;28;19926;-71
2023/06/12 08:32:37;;;;;;;;;;;;;;;24.29;52.88;97858.69;5025039;28;19937;-71
2023/06/12 08:35:05;;;;;;;;;;;;;;;24.18;53.34;97871.25;5028027;28;19932;-71
2023/06/12 08:37:31;;;;;;;;;;;;;;;24.42;53.86;97862.09;5027368;28;19929;-71
2023/06/12 08:39:57;;;;;;;;;;;;;;;24.57;52.79;97867.53;5024548;28;19922;-71
2023/06/12 08:42:25;;;;;;;;;;;;;;;24.73;51.87;97855.81;5024535;28;19925;-71
2023/06/12 08:44:57;;;;;;;;;;;;;;;24.71;52.69;97864.34;5024640;28;19925;-71
2023/06/12 08:47:24;;;;;;;;;;;;;;;24.80;52.23;97864.91;5024495;28;19921;-70
2023/06/12 08:49:50;;;;;;;;;;;;;;;24.75;51.93;97869.88;5027368;28;19929;-70
2023/06/12 08:52:19;;;;;;;;;;;;;;;24.26;52.54;97859.41;5027807;28;19926;-71
2023/06/12 08:54:46;;;;;;;;;;;;;;;24.50;53.56;97861.91;5025604;28;19933;-71
2023/06/12 08:57:13;;;;;;;;;;;;;;;24.67;52.87;97863.44;5027818;28;19925;-71
2023/06/12 08:59:41;;;;;;;;;;;;;;;24.87;51.82;97856.13;5024854;28;19925;-70
2023/06/12 09:02:09;;;;;;;;;;;;;;;24.40;52.27;97857.00;5024422;28;19926;-70
2023/06/12 09:04:41;;;;;;;;;;;;;;;24.44;52.30;97859.81;5025674;28;19933;-71
2023/06/12 09:07:08;;;;;;;;;;;;;;;24.67;52.33;97856.06;5026278;28;19936;-71
2023/06/12 09:09:38;;;;;;;;;;;;;;;24.65;52.21;97863.81;5026380;28;19979;-71
2023/06/12 09:12:06;;;;;;;;;;;;;;;24.62;53.07;97866.47;5024049;28;20021;-71
2023/06/12 09:14:33;;;;;;;;;;;;;;;25.22;51.96;97854.16;5024795;28;19926;-70
2023/06/12 09:17:01;;;;;;;;;;;;;;;24.86;51.04;97860.78;5027425;28;19929;-71
2023/06/12 09:19:29;;;;;;;;;;;;;;;25.03;51.62;97860.41;5027166;28;19937;-71
2023/06/12 09:21:55;;;;;;;;;;;;;;;25.09;50.93;97847.25;5030775;28;19925;-71
2023/06/12 09:24:22;;;;;;;;;;;;;;;25.22;51.09;97859.63;5024238;28;19926;-71
2023/06/12 09:26:48;;;;;;;;;;;;;;;25.06;50.02;97856.16;5026531;28;19921;-71
2023/06/12 09:29:14;;;;;;;;;;;;;;;24.64;50.14;97858.69;5027604;28;19925;-71
2023/06/12 09:31:41;;;;;;;;;;;;;;;25.38;51.00;97849.38;5025345;28;19929;-71
2023/06/12 09:34:11;;;;;;;;;;;;;;;25.73;50.02;97855.56;5023687;28;19926;-71
2023/06/12 09:36:37;;;;;;;;;;;;;;;25.50;49.18;97854.72;5023024;28;19926;-71
2023/06/12 09:39:05;;;;;;;;;;;;;;;25.16;49.08;97855.59;5026860;28;19926;-71
2023/06/12 09:41:34;;;;;;;;;;;;;;;25.65;49.93;97858.53;5026014;28;19948;-70
2023/06/12 09:44:02;;;;;;;;;;;;;;;25.75;49.03;97855.97;5022398;28;19930;-70
2023/06/12 09:46:28;;;;;;;;;;;;;;;25.59;47.40;97847.06;5023707;28;19925;-71
2023/06/12 09:48:58;;;;;;;;;;;;;;;25.81;48.66;97855.69;5025850;28;19933;-70
2023/06/12 09:51:27;;;;;;;;;;;;;;;25.70;48.52;97850.81;5033698;28;19921;-71
2023/06/12 09:53:56;;;;;;;;;;;;;;;25.70;48.11;97847.28;5027104;28;19929;-70
2023/06/12 09:56:23;;;;;;;;;;;;;;;25.59;47.74;97847.06;5026612;28;19926;-71
2023/06/12 09:58:51;;;;;;;;;;;;;;;25.46;48.59;97851.13;5023631;28;19970;-71
2023/06/12 10:01:19;;;;;;;;;;;;;;;25.54;48.38;97841.91;5023187;28;19922;-71
2023/06/12 10:03:47;;;;;;;;;;;;;;;25.27;48.64;97837.44;5025870;28;19948;-71
2023/06/12 10:06:14;;;;;;;;;;;;;;;26.10;48.41;97846.81;5026598;28;19921;-71
2023/06/12 10:08:42;;;;;;;;;;;;;;;25.82;48.02;97836.16;5024705;28;19929;-71
2023/06/12 10:11:09;;;;;;;;;;;;;;;25.33;48.54;97841.47;5022119;28;19922;-71
2023/06/12 10:13:36;;;;;;;;;;;;;;;26.07;48.17;97842.06;5024321;28;19937;-71
2023/06/12 10:16:02;;;;;;;;;;;;;;;26.17;47.97;97836.00;5025185;28;19926;-71
2023/06/12 10:18:29;;;;;;;;;;;;;;;26.25;46.54;97843.16;5024846;28;19936;-71
2023/06/12 10:20:55;;;;;;;;;;;;;;;25.81;47.61;97826.38;5025600;28;19926;-71
2023/06/12 10:23:22;;;;;;;;;;;;;;;25.85;47.73;97823.69;5041514;28;19925;-71
2023/06/12 10:25:51;;;;;;;;;;;;;;;26.14;47.40;97829.28;5023226;28;19925;-71
2023/06/12 10:28:17;;;;;;;;;;;;;;;25.76;46.71;97832.94;5022732;28;19926;-71
2023/06/12 10:30:59;;;;;;;;;;;;;;;25.52;47.28;97836.03;5025300;28;19933;-71
2023/06/12 10:33:25;;;;;;;;;;;;;;;25.49;45.87;97831.28;5024264;28;19926;-71
2023/06/12 10:35:51;;;;;;;;;;;;;;;25.78;46.72;97838.03;5022889;28;20040;-71
2023/06/12 10:38:20;;;;;;;;;;;;;;;25.85;45.29;97824.50;5023037;28;19926;-71
2023/06/12 10:40:50;;;;;;;;;;;;;;;25.61;44.95;97817.44;5025566;28;19926;-71
2023/06/12 10:43:26;;;;;;;;;;;;;;;26.02;45.91;97820.50;5024798;28;19926;-71
2023/06/12 10:45:56;;;;;;;;;;;;;;;26.02;43.87;97813.06;5022624;28;19925;-71
2023/06/12 10:48:24;;;;;;;;;;;;;;;25.70;43.36;97807.06;5025766;28;19929;-71
2023/06/12 10:50:50;;;;;;;;;;;;;;;25.78;44.81;97805.22;5036490;28;19925;-71
2023/06/12 10:53:20;;;;;;;;;;;;;;;26.29;43.36;97805.69;5045478;28;19925;-71
2023/06/12 10:55:47;;;;;;;;;;;;;;;25.92;42.80;97794.53;5026539;28;19937;-71
2023/06/12 10:58:14;;;;;;;;;;;;;;;25.82;44.14;97797.06;5026344;28;19926;-71
2023/06/12 11:00:46;;;;;;;;;;;;;;;25.98;44.13;97792.25;5028289;28;19972;-71
2023/06/12 11:03:14;;;;;;;;;;;;;;;26.19;43.28;97789.88;5029943;28;19926;-71
2023/06/12 11:05:46;;;;;;;;;;;;;;;26.13;43.60;97799.53;5028173;28;19925;-71
2023/06/12 11:08:12;;;;;;;;;;;;;;;26.12;42.60;97785.06;5025211;28;19925;-71
2023/06/12 11:10:39;;;;;;;;;;;;;;;26.20;43.19;97780.53;5027911;28;19925;-71
2023/06/12 11:13:05;;;;;;;;;;;;;;;26.37;43.06;97785.47;5029669;28;19925;-71
2023/06/12 11:15:32;;;;;;;;;;;;;;;26.56;41.70;97787.31;5029108;28;19932;-71
2023/06/12 11:18:00;;;;;;;;;;;;;;;26.46;42.85;97788.72;5025944;28;19922;-71
2023/06/12 11:20:27;;;;;;;;;;;;;;;26.46;41.97;97779.75;5032492;28;19929;-70
2023/06/12 11:22:58;;;;;;;;;;;;;;;26.52;41.68;97770.06;5025175;28;19936;-70
2023/06/12 11:25:25;;;;;;;;;;;;;;;26.12;42.42;97773.34;5029709;28;20564;-70
2023/06/12 11:27:52;;;;;;;;;;;;;;;26.00;42.06;97766.09;5029667;28;19925;-70
2023/06/12 11:30:19;;;;;;;;;;;;;;;26.07;42.37;97773.63;5029298;28;19981;-70
2023/06/12 11:32:45;;;;;;;;;;;;;;;26.05;41.99;97768.56;5026665;28;19925;-70
2023/06/12 11:35:13;;;;;;;;;;;;;;;26.11;42.11;97767.06;5024966;28;20236;-70
2023/06/12 11:37:40;;;;;;;;;;;;;;;26.00;42.42;97765.31;5027714;28;19933;-71
2023/06/12 11:40:09;;;;;;;;;;;;;;;26.17;41.81;97770.31;5029436;28;19933;-70
2023/06/12 11:42:36;;;;;;;;;;;;;;;26.40;41.59;97770.28;5026781;28;19922;-71
2023/06/12 11:45:03;;;;;;;;;;;;;;;26.02;40.42;97763.03;5024654;28;19981;-71
2023/06/12 11:47:30;;;;;;;;;;;;;;;25.90;41.55;97757.75;5025965;28;19934;-71
2023/06/12 11:49:56;;;;;;;;;;;;;;;25.99;42.19;97758.28;5029073;28;20357;-70
2023/06/12 11:52:25;;;;;;;;;;;;;;;26.04;40.86;97761.50;5029581;28;19933;-70
2023/06/12 11:54:59;;;;;;;;;;;;;;;25.96;42.06;97753.53;5028695;28;19930;-71
2023/06/12 11:57:27;;;;;;;;;;;;;;;26.09;42.38;97763.91;5028810;28;19925;-70
2023/06/12 11:59:56;;;;;;;;;;;;;;;26.11;41.63;97756.13;5039837;28;19941;-70
2023/06/12 12:02:29;;;;;;;;;;;;;;;26.18;41.48;97744.53;5026052;28;20250;-70
2023/06/12 12:04:56;;;;;;;;;;;;;;;25.94;41.60;97750.38;5026858;28;19925;-70
2023/06/12 12:07:24;;;;;;;;;;;;;;;26.08;41.46;97751.41;5026410;28;19922;-70
2023/06/12 12:10:01;;;;;;;;;;;;;;;26.04;42.05;97741.53;5029271;28;19972;-70
2023/06/12 12:12:28;;;;;;;;;;;;;;;26.04;41.23;97744.28;5028669;28;20020;-70
2023/06/12 12:14:54;;;;;;;;;;;;;;;25.84;41.16;97746.31;5025311;28;19922;-70
2023/06/12 12:17:20;;;;;;;;;;;;;;;25.83;40.45;97754.88;5025471;28;19926;-70
2023/06/12 12:19:47;;;;;;;;;;;;;;;25.78;40.69;97748.56;5028111;28;19922;-70
2023/06/12 12:22:15;;;;;;;;;;;;;;;26.03;41.44;97742.69;5031204;28;19937;-70
2023/06/12 12:24:43;;;;;;;;;;;;;;;26.06;39.93;97737.28;5027619;28;19930;-70
2023/06/12 12:27:13;;;;;;;;;;;;;;;25.94;40.24;97729.25;5028150;28;19932;-70
2023/06/12 12:29:39;;;;;;;;;;;;;;;25.82;40.09;97736.88;5026485;28;19926;-70
2023/06/12 12:32:06;;;;;;;;;;;;;;;25.97;40.01;97733.22;5023259;28;19933;-70
2023/06/12 12:34:32;;;;;;;;;;;;;;;25.94;40.16;97736.69;5040051;28;19940;-70
2023/06/12 12:36:59;;;;;;;;;;;;;;;26.02;39.72;97735.66;5027354;28;19937;-70
2023/06/12 12:39:25;;;;;;;;;;;;;;;26.06;39.81;97722.78;5027240;28;19925;-70
2023/06/12 12:41:53;;;;;;;;;;;;;;;25.80;39.37;97722.78;5023895;28;19933;-70
2023/06/12 12:44:19;;;;;;;;;;;;;;;25.76;39.75;97723.53;5023661;28;19925;-70
2023/06/12 12:46:46;;;;;;;;;;;;;;;25.72;39.66;97695.31;5026256;28;20011;-70
2023/06/12 12:49:13;;;;;;;;;;;;;;;25.93;39.68;97710.50;5027074;28;19948;-70